Terminal Aerodrome Forecast
Issued by NWS Tulsa, OK

Home | Current Version | Previous Version | Text Only | Print | Product List | Glossary On
Versions: 1 2 3 4 5 6 7 8 9 10 11 12 13
339
FTUS44 KTSA 251913 AAA
TAFFSM
TAF AMD
KFSM 251913Z 2519/2618 09012G18KT P6SM SCT050 BKN250
     FM260000 08003KT P6SM BKN250
     FM260600 08003KT 5SM BR VCTS BKN050CB
     FM261300 08003KT P6SM BKN050=

USA.gov is the U.S. government's official web portal to all federal, state and local government web resources and services.